createdAt,value
2022-12-27T00:00:48.910Z,6.20
2022-12-27T00:05:50.778Z,5.25
2022-12-27T00:10:52.588Z,6.28
2022-12-27T00:15:54.547Z,4.00
2022-12-27T00:21:00.257Z,4.07
2022-12-27T00:26:03.198Z,5.38
2022-12-27T00:31:05.264Z,6.72
2022-12-27T00:36:08.568Z,5.25
2022-12-27T00:41:10.579Z,6.20
2022-12-27T00:46:12.681Z,4.35
2022-12-27T00:51:20.391Z,4.15
2022-12-27T00:56:31.239Z,3.63
2022-12-27T01:01:35.121Z,5.75
2022-12-27T01:06:37.153Z,6.88
2022-12-27T01:11:40.492Z,4.75
2022-12-27T01:16:42.453Z,6.75
2022-12-27T01:21:44.363Z,5.05
2022-12-27T01:26:46.278Z,5.28
2022-12-27T01:31:48.178Z,5.00
2022-12-27T01:36:50.154Z,8.10
2022-12-27T01:41:52.009Z,4.70
2022-12-27T01:46:53.896Z,7.25
2022-12-27T01:51:55.741Z,4.70
2022-12-27T01:56:57.611Z,5.28
2022-12-27T02:01:59.654Z,5.93
2022-12-27T02:07:01.554Z,4.53
2022-12-27T02:12:03.677Z,4.95
2022-12-27T02:17:11.405Z,4.88
2022-12-27T02:22:31.353Z,5.57
2022-12-27T02:28:04.241Z,7.95
2022-12-27T02:33:12.905Z,5.25
2022-12-27T02:38:31.008Z,5.15
2022-12-27T02:43:33.087Z,5.93
2022-12-27T02:48:35.151Z,6.65
2022-12-27T02:53:52.325Z,6.75
2022-12-27T02:59:18.476Z,6.65
2022-12-27T03:04:47.716Z,5.95
2022-12-27T03:09:52.221Z,4.38
2022-12-27T03:14:56.817Z,8.00
2022-12-27T03:20:00.805Z,5.47
2022-12-27T03:25:02.723Z,7.60
2022-12-27T03:35:16.341Z,7.43
2022-12-27T03:40:35.076Z,6.60
2022-12-27T03:45:56.172Z,5.60
2022-12-27T03:50:59.360Z,7.20
2022-12-27T03:56:01.318Z,6.00
2022-12-27T04:01:03.268Z,6.28
2022-12-27T04:06:05.249Z,5.28
2022-12-27T04:11:07.156Z,5.78
2022-12-27T04:16:09.113Z,5.32
2022-12-27T04:21:11.025Z,5.95
2022-12-27T04:26:13.979Z,5.15
2022-12-27T04:31:15.935Z,6.30
2022-12-27T04:36:17.849Z,4.78
2022-12-27T04:41:19.809Z,4.82
2022-12-27T04:46:23.918Z,6.50
2022-12-27T04:51:25.811Z,6.38
2022-12-27T04:56:27.877Z,5.97
2022-12-27T05:01:29.869Z,6.88
2022-12-27T05:06:31.899Z,7.72
2022-12-27T05:11:33.816Z,7.88
2022-12-27T05:16:37.183Z,8.02
2022-12-27T05:21:43.308Z,6.88
2022-12-27T05:26:45.227Z,7.10
2022-12-27T05:31:47.246Z,7.13
2022-12-27T05:36:49.213Z,7.63
2022-12-27T05:41:51.173Z,7.88
2022-12-27T05:46:54.676Z,7.95
2022-12-27T05:51:56.481Z,8.05
2022-12-27T05:56:58.415Z,9.25
2022-12-27T06:02:00.424Z,6.95
2022-12-27T06:07:02.448Z,5.80
2022-12-27T06:12:04.512Z,7.65
2022-12-27T06:17:06.304Z,6.82
2022-12-27T06:22:08.170Z,8.63
2022-12-27T06:27:10.067Z,7.00
2022-12-27T06:32:11.852Z,7.38
2022-12-27T06:37:13.692Z,7.32
2022-12-27T06:42:15.540Z,10.63
2022-12-27T06:47:17.534Z,8.60
2022-12-27T06:57:21.450Z,9.55
2022-12-27T07:02:23.328Z,9.68
2022-12-27T07:07:25.278Z,11.07
2022-12-27T07:12:29.544Z,9.97
2022-12-27T07:17:35.855Z,10.25
2022-12-27T07:22:37.788Z,11.52
2022-12-27T07:27:39.701Z,11.95
2022-12-27T07:32:41.538Z,12.68
2022-12-27T07:37:43.420Z,10.75
2022-12-27T07:42:45.314Z,10.15
2022-12-27T07:47:47.158Z,10.23
2022-12-27T07:52:49.048Z,9.82
2022-12-27T07:57:51.048Z,10.40
2022-12-27T08:02:52.975Z,10.63
2022-12-27T08:07:54.901Z,11.00
2022-12-27T08:12:56.772Z,13.00
2022-12-27T08:17:59.783Z,17.75
2022-12-27T08:23:01.685Z,13.30
2022-12-27T08:28:05.212Z,15.07
2022-12-27T08:33:07.064Z,10.48
2022-12-27T08:38:09.021Z,12.15
2022-12-27T08:43:11.211Z,11.90
2022-12-27T08:48:13.103Z,11.02
2022-12-27T08:53:15.000Z,12.77
2022-12-27T08:58:16.911Z,14.32
2022-12-27T09:03:19.716Z,12.85
2022-12-27T09:08:21.641Z,13.55
2022-12-27T09:13:23.549Z,11.48
2022-12-27T09:18:25.376Z,12.10
2022-12-27T09:23:27.248Z,13.10
2022-12-27T09:28:29.119Z,15.35
2022-12-27T09:33:31.414Z,15.05
2022-12-27T09:38:33.359Z,13.68
2022-12-27T09:43:53.492Z,12.60
2022-12-27T09:48:55.450Z,14.27
2022-12-27T09:54:22.378Z,23.85
2022-12-27T09:59:39.478Z,12.43
2022-12-27T10:05:17.733Z,13.70
2022-12-27T10:10:43.702Z,12.85
2022-12-27T10:15:54.628Z,13.52
2022-12-27T10:21:20.073Z,14.13
2022-12-27T10:26:22.068Z,11.77
2022-12-27T10:31:24.023Z,15.57
2022-12-27T10:36:27.969Z,16.45
2022-12-27T10:41:54.518Z,16.42
2022-12-27T10:46:56.554Z,19.05
2022-12-27T10:52:17.901Z,18.02
2022-12-27T10:57:33.274Z,18.42
2022-12-27T11:02:35.234Z,18.58
2022-12-27T11:07:37.074Z,19.50
2022-12-27T11:12:38.909Z,16.50
2022-12-27T11:17:49.297Z,18.20
2022-12-27T11:22:59.049Z,20.45
2022-12-27T11:28:06.116Z,15.75
2022-12-27T11:33:34.830Z,20.83
2022-12-27T11:38:37.423Z,20.70
2022-12-27T11:43:45.625Z,21.65
2022-12-27T11:48:47.570Z,25.60
2022-12-27T11:54:20.153Z,26.88
2022-12-27T11:59:33.708Z,32.40
2022-12-27T12:04:59.901Z,24.60
2022-12-27T12:10:20.365Z,29.33
2022-12-27T12:15:57.445Z,25.67
2022-12-27T12:21:10.983Z,27.58
2022-12-27T12:26:26.024Z,26.42
2022-12-27T12:31:52.629Z,25.83
2022-12-27T12:37:34.111Z,26.42
2022-12-27T12:42:47.649Z,23.73
2022-12-27T12:48:15.609Z,29.15
2022-12-27T12:53:26.398Z,28.23
2022-12-27T12:58:34.242Z,19.85
2022-12-27T13:03:54.353Z,24.58
2022-12-27T13:09:07.533Z,26.75
2022-12-27T13:14:21.403Z,24.02
2022-12-27T13:19:28.891Z,24.25
2022-12-27T13:24:54.705Z,26.42
2022-12-27T13:30:19.162Z,24.38
2022-12-27T13:35:33.147Z,28.80
2022-12-27T13:40:43.830Z,26.55
2022-12-27T13:45:52.149Z,25.33
2022-12-27T13:51:19.222Z,25.58
2022-12-27T13:56:54.841Z,28.85
2022-12-27T14:02:23.361Z,27.50
2022-12-27T14:07:49.956Z,29.30
2022-12-27T14:13:32.821Z,26.27
2022-12-27T14:18:53.167Z,26.33
2022-12-27T14:24:16.247Z,26.13
2022-12-27T14:29:36.390Z,27.92
2022-12-27T14:35:00.103Z,24.98
2022-12-27T14:40:43.117Z,24.13
2022-12-27T14:46:17.035Z,26.80
2022-12-27T14:57:15.911Z,26.38
2022-12-27T15:02:33.116Z,27.23
2022-12-27T15:08:06.047Z,26.67
2022-12-27T15:13:27.626Z,26.08
2022-12-27T15:18:32.794Z,23.70
2022-12-27T15:24:01.560Z,27.05
2022-12-27T15:29:17.426Z,27.88
2022-12-27T15:34:37.384Z,26.80
2022-12-27T15:39:39.068Z,26.50
2022-12-27T15:44:49.726Z,26.03
2022-12-27T15:50:13.539Z,25.85
2022-12-27T15:55:27.354Z,25.08
2022-12-27T16:00:33.955Z,23.65
2022-12-27T16:05:47.247Z,22.60
2022-12-27T16:10:49.813Z,25.85
2022-12-27T16:21:10.027Z,24.63
2022-12-27T16:26:34.687Z,21.13
2022-12-27T16:31:45.115Z,23.88
2022-12-27T16:36:47.821Z,24.40
2022-12-27T16:41:55.884Z,22.70
2022-12-27T16:47:09.391Z,23.40
2022-12-27T16:52:13.934Z,22.00
2022-12-27T16:57:22.727Z,22.55
2022-12-27T17:02:41.674Z,20.63
2022-12-27T17:07:52.602Z,19.95
2022-12-27T17:12:58.241Z,23.10
2022-12-27T17:18:09.365Z,21.83
2022-12-27T17:23:11.184Z,20.20
2022-12-27T17:28:16.880Z,14.77
2022-12-27T17:33:31.250Z,21.58
2022-12-27T17:38:57.685Z,18.70
2022-12-27T17:44:16.051Z,19.60
2022-12-27T17:49:18.033Z,21.80
2022-12-27T17:54:26.249Z,22.35
2022-12-27T17:59:28.953Z,27.08
2022-12-27T18:04:33.573Z,26.75
2022-12-27T18:09:38.101Z,21.92
2022-12-27T18:14:40.057Z,20.92
2022-12-27T18:19:42.026Z,27.48
2022-12-27T18:24:44.564Z,23.73
2022-12-27T18:29:47.703Z,22.17
2022-12-27T18:34:53.674Z,24.73
2022-12-27T18:39:59.255Z,21.27
2022-12-27T18:45:22.429Z,23.17
2022-12-27T18:50:28.561Z,23.73
2022-12-27T18:55:30.553Z,24.10
2022-12-27T19:00:32.472Z,20.58
2022-12-27T19:05:34.445Z,23.65
2022-12-27T19:10:36.373Z,21.08
2022-12-27T19:15:42.537Z,25.00
2022-12-27T19:20:50.936Z,25.98
2022-12-27T19:26:26.008Z,25.90
2022-12-27T19:31:27.854Z,23.50
2022-12-27T19:36:40.464Z,18.13
2022-12-27T19:41:42.387Z,24.27
2022-12-27T19:46:44.448Z,21.40
2022-12-27T19:51:46.294Z,19.52
2022-12-27T19:56:48.237Z,28.20
2022-12-27T20:01:50.625Z,23.80
2022-12-27T20:06:52.771Z,21.95
2022-12-27T20:11:55.923Z,23.45
2022-12-27T20:17:06.782Z,18.57
2022-12-27T20:22:17.546Z,23.58
2022-12-27T20:27:19.461Z,22.60
2022-12-27T20:32:21.359Z,24.00
2022-12-27T20:37:24.812Z,21.47
2022-12-27T20:42:27.101Z,20.88
2022-12-27T20:47:29.032Z,21.33
2022-12-27T20:52:31.473Z,21.00
2022-12-27T20:57:34.110Z,21.90
2022-12-27T21:07:37.804Z,20.73
2022-12-27T21:12:39.737Z,23.63
2022-12-27T21:17:41.743Z,18.67
2022-12-27T21:22:43.615Z,20.10
2022-12-27T21:27:45.422Z,21.03
2022-12-27T21:32:47.895Z,19.33
2022-12-27T21:37:49.869Z,24.63
2022-12-27T21:42:51.795Z,24.20
2022-12-27T21:47:53.762Z,16.23
2022-12-27T21:52:55.603Z,24.57
2022-12-27T21:57:58.016Z,24.67
2022-12-27T22:02:59.976Z,22.42
2022-12-27T22:08:02.050Z,23.33
2022-12-27T22:13:03.925Z,23.90
2022-12-27T22:18:05.898Z,20.60
2022-12-27T22:23:07.854Z,15.30
2022-12-27T22:28:09.652Z,20.87
2022-12-27T22:33:11.487Z,20.70
2022-12-27T22:38:13.560Z,18.83
2022-12-27T22:43:15.423Z,18.95
2022-12-27T22:48:17.250Z,17.33
2022-12-27T22:53:19.199Z,17.07
2022-12-27T22:58:21.161Z,20.83
2022-12-27T23:03:23.012Z,19.97
2022-12-27T23:08:24.995Z,14.60
2022-12-27T23:13:26.833Z,13.98
2022-12-27T23:18:28.904Z,19.50
2022-12-27T23:23:30.822Z,20.15
2022-12-27T23:28:38.635Z,15.73
2022-12-27T23:33:41.113Z,18.35
2022-12-27T23:38:43.493Z,16.98
2022-12-27T23:43:54.560Z,19.08
2022-12-27T23:48:58.230Z,14.67
2022-12-27T23:54:00.057Z,19.17
2022-12-27T23:59:02.119Z,18.70
